sensor_id;sensor_type;location;lat;lon;timestamp;temperature;humidity
28087;DHT22;15392;48.912;8.380;2023-01-01T00:00:39;22.10;49.30
28087;DHT22;15392;48.912;8.380;2023-01-01T00:03:05;22.00;47.70
28087;DHT22;15392;48.912;8.380;2023-01-01T00:05:31;22.00;48.50
28087;DHT22;15392;48.912;8.380;2023-01-01T00:07:57;22.00;48.90
28087;DHT22;15392;48.912;8.380;2023-01-01T00:10:22;22.00;48.70
28087;DHT22;15392;48.912;8.380;2023-01-01T00:12:54;22.00;47.70
28087;DHT22;15392;48.912;8.380;2023-01-01T00:15:20;21.90;48.60
28087;DHT22;15392;48.912;8.380;2023-01-01T00:17:46;21.90;47.10
28087;DHT22;15392;48.912;8.380;2023-01-01T00:20:12;21.90;47.60
28087;DHT22;15392;48.912;8.380;2023-01-01T00:22:38;21.90;47.10
28087;DHT22;15392;48.912;8.380;2023-01-01T00:25:04;22.00;48.30
28087;DHT22;15392;48.912;8.380;2023-01-01T00:27:30;21.90;46.40
28087;DHT22;15392;48.912;8.380;2023-01-01T00:29:56;21.90;47.60
28087;DHT22;15392;48.912;8.380;2023-01-01T00:32:21;21.90;47.50
28087;DHT22;15392;48.912;8.380;2023-01-01T00:34:47;21.90;47.60
28087;DHT22;15392;48.912;8.380;2023-01-01T00:37:12;21.90;47.50
28087;DHT22;15392;48.912;8.380;2023-01-01T00:39:39;21.90;47.70
28087;DHT22;15392;48.912;8.380;2023-01-01T00:42:05;21.90;47.90
28087;DHT22;15392;48.912;8.380;2023-01-01T00:44:31;21.90;45.20
28087;DHT22;15392;48.912;8.380;2023-01-01T00:46:57;21.90;46.40
28087;DHT22;15392;48.912;8.380;2023-01-01T00:49:23;21.90;46.60
28087;DHT22;15392;48.912;8.380;2023-01-01T00:51:48;22.00;47.30
28087;DHT22;15392;48.912;8.380;2023-01-01T00:54:14;21.90;46.50
28087;DHT22;15392;48.912;8.380;2023-01-01T00:56:39;21.90;47.50
28087;DHT22;15392;48.912;8.380;2023-01-01T00:59:05;21.90;47.80
28087;DHT22;15392;48.912;8.380;2023-01-01T01:01:31;22.00;46.40
28087;DHT22;15392;48.912;8.380;2023-01-01T01:03:58;22.00;48.30
28087;DHT22;15392;48.912;8.380;2023-01-01T01:06:24;22.00;48.30
28087;DHT22;15392;48.912;8.380;2023-01-01T01:08:50;22.00;48.10
28087;DHT22;15392;48.912;8.380;2023-01-01T01:11:17;22.00;48.50
28087;DHT22;15392;48.912;8.380;2023-01-01T01:13:44;22.00;47.80
28087;DHT22;15392;48.912;8.380;2023-01-01T01:16:12;22.00;48.30
28087;DHT22;15392;48.912;8.380;2023-01-01T01:18:40;21.90;48.80
28087;DHT22;15392;48.912;8.380;2023-01-01T01:21:06;21.90;48.90
28087;DHT22;15392;48.912;8.380;2023-01-01T01:23:32;21.90;48.70
28087;DHT22;15392;48.912;8.380;2023-01-01T01:26:08;21.90;48.50
28087;DHT22;15392;48.912;8.380;2023-01-01T01:28:36;21.90;48.70
28087;DHT22;15392;48.912;8.380;2023-01-01T01:31:02;21.80;48.90
28087;DHT22;15392;48.912;8.380;2023-01-01T01:33:28;21.80;48.70
28087;DHT22;15392;48.912;8.380;2023-01-01T01:35:54;21.80;48.70
28087;DHT22;15392;48.912;8.380;2023-01-01T01:38:19;21.80;48.70
28087;DHT22;15392;48.912;8.380;2023-01-01T01:40:45;21.70;48.80
28087;DHT22;15392;48.912;8.380;2023-01-01T01:43:21;21.70;47.80
28087;DHT22;15392;48.912;8.380;2023-01-01T01:45:50;21.70;48.00
28087;DHT22;15392;48.912;8.380;2023-01-01T01:48:21;21.70;47.60
28087;DHT22;15392;48.912;8.380;2023-01-01T01:50:48;21.70;46.60
28087;DHT22;15392;48.912;8.380;2023-01-01T01:53:16;21.60;47.80
28087;DHT22;15392;48.912;8.380;2023-01-01T01:55:47;21.60;48.50
28087;DHT22;15392;48.912;8.380;2023-01-01T01:58:15;21.60;47.90
28087;DHT22;15392;48.912;8.380;2023-01-01T02:00:41;21.60;47.40
28087;DHT22;15392;48.912;8.380;2023-01-01T02:03:08;21.60;46.70
28087;DHT22;15392;48.912;8.380;2023-01-01T02:05:36;21.60;48.60
28087;DHT22;15392;48.912;8.380;2023-01-01T02:08:04;21.60;47.40
28087;DHT22;15392;48.912;8.380;2023-01-01T02:10:30;21.50;47.10
28087;DHT22;15392;48.912;8.380;2023-01-01T02:12:56;21.50;48.00
28087;DHT22;15392;48.912;8.380;2023-01-01T02:15:22;21.50;48.50
28087;DHT22;15392;48.912;8.380;2023-01-01T02:18:11;21.50;48.20
28087;DHT22;15392;48.912;8.380;2023-01-01T02:28:43;21.40;46.30
28087;DHT22;15392;48.912;8.380;2023-01-01T02:31:10;21.40;47.10
28087;DHT22;15392;48.912;8.380;2023-01-01T02:33:40;21.40;46.20
28087;DHT22;15392;48.912;8.380;2023-01-01T02:36:07;21.40;47.40
28087;DHT22;15392;48.912;8.380;2023-01-01T02:38:35;21.40;46.20
28087;DHT22;15392;48.912;8.380;2023-01-01T02:41:05;21.30;45.30
28087;DHT22;15392;48.912;8.380;2023-01-01T02:43:33;21.40;45.00
28087;DHT22;15392;48.912;8.380;2023-01-01T02:45:58;21.30;46.20
28087;DHT22;15392;48.912;8.380;2023-01-01T02:48:43;21.40;47.00
28087;DHT22;15392;48.912;8.380;2023-01-01T02:53:40;21.40;47.60
28087;DHT22;15392;48.912;8.380;2023-01-01T02:56:26;21.40;46.40
28087;DHT22;15392;48.912;8.380;2023-01-01T03:02:34;21.40;46.60
28087;DHT22;15392;48.912;8.380;2023-01-01T03:05:14;21.40;46.10
28087;DHT22;15392;48.912;8.380;2023-01-01T03:07:56;21.40;44.40
28087;DHT22;15392;48.912;8.380;2023-01-01T03:10:41;21.40;44.80
28087;DHT22;15392;48.912;8.380;2023-01-01T03:13:24;21.40;44.60
28087;DHT22;15392;48.912;8.380;2023-01-01T03:15:58;21.40;43.30
28087;DHT22;15392;48.912;8.380;2023-01-01T03:19:01;21.40;44.70
28087;DHT22;15392;48.912;8.380;2023-01-01T03:21:36;21.40;43.70
28087;DHT22;15392;48.912;8.380;2023-01-01T03:24:07;21.40;45.40
28087;DHT22;15392;48.912;8.380;2023-01-01T03:26:36;21.40;43.50
28087;DHT22;15392;48.912;8.380;2023-01-01T03:29:03;21.40;45.60
28087;DHT22;15392;48.912;8.380;2023-01-01T03:31:30;21.40;45.70
28087;DHT22;15392;48.912;8.380;2023-01-01T03:34:03;21.40;42.20
28087;DHT22;15392;48.912;8.380;2023-01-01T03:36:31;21.40;43.00
28087;DHT22;15392;48.912;8.380;2023-01-01T03:39:03;21.40;43.70
28087;DHT22;15392;48.912;8.380;2023-01-01T03:41:35;21.40;42.70
28087;DHT22;15392;48.912;8.380;2023-01-01T03:44:06;21.40;44.80
28087;DHT22;15392;48.912;8.380;2023-01-01T03:46:35;21.40;44.20
28087;DHT22;15392;48.912;8.380;2023-01-01T03:49:03;21.50;45.40
28087;DHT22;15392;48.912;8.380;2023-01-01T03:51:42;21.50;42.70
28087;DHT22;15392;48.912;8.380;2023-01-01T03:57:22;21.50;44.40
28087;DHT22;15392;48.912;8.380;2023-01-01T04:02:41;21.50;43.50
28087;DHT22;15392;48.912;8.380;2023-01-01T04:05:10;21.50;44.00
28087;DHT22;15392;48.912;8.380;2023-01-01T04:07:36;21.50;44.30
28087;DHT22;15392;48.912;8.380;2023-01-01T04:10:02;21.50;44.70
28087;DHT22;15392;48.912;8.380;2023-01-01T04:12:45;21.50;44.10
28087;DHT22;15392;48.912;8.380;2023-01-01T04:15:21;21.50;45.30
28087;DHT22;15392;48.912;8.380;2023-01-01T04:17:48;21.50;44.70
28087;DHT22;15392;48.912;8.380;2023-01-01T04:20:14;21.50;44.20
28087;DHT22;15392;48.912;8.380;2023-01-01T04:22:41;21.50;43.80
28087;DHT22;15392;48.912;8.380;2023-01-01T04:25:06;21.50;43.10
28087;DHT22;15392;48.912;8.380;2023-01-01T04:27:33;21.50;45.40
28087;DHT22;15392;48.912;8.380;2023-01-01T04:29:58;21.50;44.40
28087;DHT22;15392;48.912;8.380;2023-01-01T04:32:24;21.50;43.70
28087;DHT22;15392;48.912;8.380;2023-01-01T04:34:50;21.60;44.80
28087;DHT22;15392;48.912;8.380;2023-01-01T04:37:15;21.60;44.70
28087;DHT22;15392;48.912;8.380;2023-01-01T04:39:41;21.60;43.30
28087;DHT22;15392;48.912;8.380;2023-01-01T04:42:07;21.60;43.90
28087;DHT22;15392;48.912;8.380;2023-01-01T04:44:33;21.60;45.30
28087;DHT22;15392;48.912;8.380;2023-01-01T04:46:59;21.60;44.90
28087;DHT22;15392;48.912;8.380;2023-01-01T04:49:24;21.60;46.60
28087;DHT22;15392;48.912;8.380;2023-01-01T04:51:50;21.60;45.80
28087;DHT22;15392;48.912;8.380;2023-01-01T04:54:15;21.60;45.80
28087;DHT22;15392;48.912;8.380;2023-01-01T04:56:41;21.60;44.70
28087;DHT22;15392;48.912;8.380;2023-01-01T04:59:07;21.60;44.50
28087;DHT22;15392;48.912;8.380;2023-01-01T05:01:32;21.50;45.50
28087;DHT22;15392;48.912;8.380;2023-01-01T05:03:58;21.60;44.30
28087;DHT22;15392;48.912;8.380;2023-01-01T05:06:24;21.60;45.60
28087;DHT22;15392;48.912;8.380;2023-01-01T05:08:51;21.60;45.70
28087;DHT22;15392;48.912;8.380;2023-01-01T05:11:20;21.60;45.70
28087;DHT22;15392;48.912;8.380;2023-01-01T05:13:47;21.60;44.80
28087;DHT22;15392;48.912;8.380;2023-01-01T05:16:15;21.60;44.90
28087;DHT22;15392;48.912;8.380;2023-01-01T05:18:42;21.60;43.40
28087;DHT22;15392;48.912;8.380;2023-01-01T05:21:16;21.60;45.70
28087;DHT22;15392;48.912;8.380;2023-01-01T05:23:44;21.60;46.30
28087;DHT22;15392;48.912;8.380;2023-01-01T05:26:10;21.60;46.10
28087;DHT22;15392;48.912;8.380;2023-01-01T05:28:37;21.60;46.60
28087;DHT22;15392;48.912;8.380;2023-01-01T05:31:07;21.60;43.10
28087;DHT22;15392;48.912;8.380;2023-01-01T05:33:34;21.60;44.60
28087;DHT22;15392;48.912;8.380;2023-01-01T05:36:00;21.50;44.70
28087;DHT22;15392;48.912;8.380;2023-01-01T05:38:26;21.60;45.30
28087;DHT22;15392;48.912;8.380;2023-01-01T05:40:52;21.50;45.20
28087;DHT22;15392;48.912;8.380;2023-01-01T05:43:17;21.60;46.20
28087;DHT22;15392;48.912;8.380;2023-01-01T05:45:43;21.50;44.00
28087;DHT22;15392;48.912;8.380;2023-01-01T05:48:09;21.50;45.40
28087;DHT22;15392;48.912;8.380;2023-01-01T05:50:35;21.50;45.60
28087;DHT22;15392;48.912;8.380;2023-01-01T05:53:01;21.50;44.70
28087;DHT22;15392;48.912;8.380;2023-01-01T05:55:27;21.50;43.30
28087;DHT22;15392;48.912;8.380;2023-01-01T05:57:55;21.50;44.50
28087;DHT22;15392;48.912;8.380;2023-01-01T06:00:20;21.50;45.80
28087;DHT22;15392;48.912;8.380;2023-01-01T06:02:46;21.50;44.40
28087;DHT22;15392;48.912;8.380;2023-01-01T06:05:14;21.50;46.20
28087;DHT22;15392;48.912;8.380;2023-01-01T06:07:40;21.50;46.20
28087;DHT22;15392;48.912;8.380;2023-01-01T06:10:05;21.50;45.80
28087;DHT22;15392;48.912;8.380;2023-01-01T06:12:31;21.40;43.90
28087;DHT22;15392;48.912;8.380;2023-01-01T06:14:57;21.50;45.90
28087;DHT22;15392;48.912;8.380;2023-01-01T06:17:22;21.40;44.50
28087;DHT22;15392;48.912;8.380;2023-01-01T06:19:48;21.40;42.90
28087;DHT22;15392;48.912;8.380;2023-01-01T06:22:14;21.40;44.20
28087;DHT22;15392;48.912;8.380;2023-01-01T06:24:39;21.40;45.40
28087;DHT22;15392;48.912;8.380;2023-01-01T06:27:05;21.40;45.00
28087;DHT22;15392;48.912;8.380;2023-01-01T06:29:31;21.40;44.40
28087;DHT22;15392;48.912;8.380;2023-01-01T06:31:57;21.40;44.90
28087;DHT22;15392;48.912;8.380;2023-01-01T06:34:22;21.40;46.50
28087;DHT22;15392;48.912;8.380;2023-01-01T06:36:48;21.40;46.50
28087;DHT22;15392;48.912;8.380;2023-01-01T06:39:13;21.40;46.50
28087;DHT22;15392;48.912;8.380;2023-01-01T06:41:39;21.40;45.60
28087;DHT22;15392;48.912;8.380;2023-01-01T06:44:05;21.30;46.30
28087;DHT22;15392;48.912;8.380;2023-01-01T06:46:31;21.40;45.00
28087;DHT22;15392;48.912;8.380;2023-01-01T06:49:00;21.30;46.60
28087;DHT22;15392;48.912;8.380;2023-01-01T06:51:36;21.30;46.70
28087;DHT22;15392;48.912;8.380;2023-01-01T06:54:03;21.30;47.50
28087;DHT22;15392;48.912;8.380;2023-01-01T06:56:29;21.30;47.70
28087;DHT22;15392;48.912;8.380;2023-01-01T06:58:55;21.20;47.10
28087;DHT22;15392;48.912;8.380;2023-01-01T07:01:22;21.20;47.90
28087;DHT22;15392;48.912;8.380;2023-01-01T07:03:53;21.20;46.90
28087;DHT22;15392;48.912;8.380;2023-01-01T07:06:23;21.20;47.80
28087;DHT22;15392;48.912;8.380;2023-01-01T07:08:49;21.10;47.30
28087;DHT22;15392;48.912;8.380;2023-01-01T07:11:15;21.10;47.60
28087;DHT22;15392;48.912;8.380;2023-01-01T07:13:41;21.10;48.10
28087;DHT22;15392;48.912;8.380;2023-01-01T07:16:07;21.00;47.60
28087;DHT22;15392;48.912;8.380;2023-01-01T07:18:33;21.00;47.90
28087;DHT22;15392;48.912;8.380;2023-01-01T07:20:59;21.00;47.80
28087;DHT22;15392;48.912;8.380;2023-01-01T07:23:27;20.90;47.80
28087;DHT22;15392;48.912;8.380;2023-01-01T07:25:53;20.90;47.60
28087;DHT22;15392;48.912;8.380;2023-01-01T07:28:20;20.90;47.60
28087;DHT22;15392;48.912;8.380;2023-01-01T07:30:46;20.90;47.50
28087;DHT22;15392;48.912;8.380;2023-01-01T07:33:17;20.80;47.80
28087;DHT22;15392;48.912;8.380;2023-01-01T07:35:44;20.80;48.00
28087;DHT22;15392;48.912;8.380;2023-01-01T07:38:10;20.70;48.00
28087;DHT22;15392;48.912;8.380;2023-01-01T07:40:36;20.70;47.90
28087;DHT22;15392;48.912;8.380;2023-01-01T07:43:02;20.70;48.30
28087;DHT22;15392;48.912;8.380;2023-01-01T07:45:28;20.70;48.20
28087;DHT22;15392;48.912;8.380;2023-01-01T07:47:54;20.70;48.40
28087;DHT22;15392;48.912;8.380;2023-01-01T07:50:21;20.60;48.60
28087;DHT22;15392;48.912;8.380;2023-01-01T07:52:47;20.60;48.60
28087;DHT22;15392;48.912;8.380;2023-01-01T07:55:14;20.60;47.50
28087;DHT22;15392;48.912;8.380;2023-01-01T07:57:41;20.60;48.50
28087;DHT22;15392;48.912;8.380;2023-01-01T08:00:08;20.50;48.80
28087;DHT22;15392;48.912;8.380;2023-01-01T08:02:34;20.50;48.40
28087;DHT22;15392;48.912;8.380;2023-01-01T08:05:00;20.50;48.70
28087;DHT22;15392;48.912;8.380;2023-01-01T08:07:26;20.50;48.90
28087;DHT22;15392;48.912;8.380;2023-01-01T08:09:51;20.40;48.80
28087;DHT22;15392;48.912;8.380;2023-01-01T08:12:17;20.40;48.90
28087;DHT22;15392;48.912;8.380;2023-01-01T08:14:43;20.40;49.10
28087;DHT22;15392;48.912;8.380;2023-01-01T08:17:08;20.40;49.30
28087;DHT22;15392;48.912;8.380;2023-01-01T08:19:34;20.40;49.20
28087;DHT22;15392;48.912;8.380;2023-01-01T08:21:59;20.40;49.20
28087;DHT22;15392;48.912;8.380;2023-01-01T08:24:25;20.40;49.50
28087;DHT22;15392;48.912;8.380;2023-01-01T08:26:51;20.40;49.60
28087;DHT22;15392;48.912;8.380;2023-01-01T08:29:16;20.30;49.50
28087;DHT22;15392;48.912;8.380;2023-01-01T08:31:42;20.30;49.50
28087;DHT22;15392;48.912;8.380;2023-01-01T08:34:08;20.30;49.50
28087;DHT22;15392;48.912;8.380;2023-01-01T08:36:33;20.30;49.60
28087;DHT22;15392;48.912;8.380;2023-01-01T08:38:59;20.30;49.70
28087;DHT22;15392;48.912;8.380;2023-01-01T08:41:25;20.30;49.70
28087;DHT22;15392;48.912;8.380;2023-01-01T08:43:50;20.30;49.70
28087;DHT22;15392;48.912;8.380;2023-01-01T08:46:16;20.30;49.70
28087;DHT22;15392;48.912;8.380;2023-01-01T08:48:42;20.30;49.70
28087;DHT22;15392;48.912;8.380;2023-01-01T08:51:08;20.40;49.80
28087;DHT22;15392;48.912;8.380;2023-01-01T08:53:33;20.30;49.90
28087;DHT22;15392;48.912;8.380;2023-01-01T08:56:03;20.40;49.90
28087;DHT22;15392;48.912;8.380;2023-01-01T08:58:30;20.40;49.70
28087;DHT22;15392;48.912;8.380;2023-01-01T09:00:57;20.40;50.10
28087;DHT22;15392;48.912;8.380;2023-01-01T09:03:23;20.40;50.00
28087;DHT22;15392;48.912;8.380;2023-01-01T09:05:49;20.40;49.70
28087;DHT22;15392;48.912;8.380;2023-01-01T09:08:15;20.40;49.80
28087;DHT22;15392;48.912;8.380;2023-01-01T09:10:41;20.40;49.90
28087;DHT22;15392;48.912;8.380;2023-01-01T09:13:11;20.50;50.10
28087;DHT22;15392;48.912;8.380;2023-01-01T09:15:38;20.50;50.20
28087;DHT22;15392;48.912;8.380;2023-01-01T09:18:04;20.60;50.40
28087;DHT22;15392;48.912;8.380;2023-01-01T09:20:29;20.60;49.70
28087;DHT22;15392;48.912;8.380;2023-01-01T09:22:55;20.70;49.40
28087;DHT22;15392;48.912;8.380;2023-01-01T09:25:21;20.80;49.80
28087;DHT22;15392;48.912;8.380;2023-01-01T09:27:46;21.00;50.60
28087;DHT22;15392;48.912;8.380;2023-01-01T09:30:13;21.10;47.90
28087;DHT22;15392;48.912;8.380;2023-01-01T09:32:39;21.30;48.60
28087;DHT22;15392;48.912;8.380;2023-01-01T09:35:05;21.50;50.00
28087;DHT22;15392;48.912;8.380;2023-01-01T09:37:31;21.70;49.90
28087;DHT22;15392;48.912;8.380;2023-01-01T09:39:56;21.90;49.30
28087;DHT22;15392;48.912;8.380;2023-01-01T09:50:04;22.80;49.10
28087;DHT22;15392;48.912;8.380;2023-01-01T09:52:36;23.00;45.10
28087;DHT22;15392;48.912;8.380;2023-01-01T09:55:14;23.10;46.40
28087;DHT22;15392;48.912;8.380;2023-01-01T09:57:43;23.30;47.10
28087;DHT22;15392;48.912;8.380;2023-01-01T10:00:13;23.30;44.70
28087;DHT22;15392;48.912;8.380;2023-01-01T10:02:59;23.40;45.10
28087;DHT22;15392;48.912;8.380;2023-01-01T10:08:22;23.60;45.60
28087;DHT22;15392;48.912;8.380;2023-01-01T10:10:56;23.80;47.80
28087;DHT22;15392;48.912;8.380;2023-01-01T10:13:36;23.80;46.60
28087;DHT22;15392;48.912;8.380;2023-01-01T10:16:08;24.00;45.80
28087;DHT22;15392;48.912;8.380;2023-01-01T10:18:56;24.00;47.00
28087;DHT22;15392;48.912;8.380;2023-01-01T10:21:29;24.10;47.20
28087;DHT22;15392;48.912;8.380;2023-01-01T10:24:00;24.10;46.20
28087;DHT22;15392;48.912;8.380;2023-01-01T10:26:28;24.10;46.40
28087;DHT22;15392;48.912;8.380;2023-01-01T10:31:46;24.00;45.20
28087;DHT22;15392;48.912;8.380;2023-01-01T10:34:22;24.00;43.90
28087;DHT22;15392;48.912;8.380;2023-01-01T10:36:57;23.90;41.20
28087;DHT22;15392;48.912;8.380;2023-01-01T10:39:24;23.90;42.80
28087;DHT22;15392;48.912;8.380;2023-01-01T10:41:50;23.80;41.20
28087;DHT22;15392;48.912;8.380;2023-01-01T10:44:32;23.80;43.90
28087;DHT22;15392;48.912;8.380;2023-01-01T10:46:59;23.70;42.70
28087;DHT22;15392;48.912;8.380;2023-01-01T10:52:24;23.70;44.50
28087;DHT22;15392;48.912;8.380;2023-01-01T10:54:56;23.60;44.80
28087;DHT22;15392;48.912;8.380;2023-01-01T10:59:51;23.60;43.00
28087;DHT22;15392;48.912;8.380;2023-01-01T11:04:49;23.50;44.70
28087;DHT22;15392;48.912;8.380;2023-01-01T11:07:29;23.50;44.10
28087;DHT22;15392;48.912;8.380;2023-01-01T11:09:58;23.50;41.60
28087;DHT22;15392;48.912;8.380;2023-01-01T11:12:26;23.50;44.60
28087;DHT22;15392;48.912;8.380;2023-01-01T11:14:54;23.50;44.30
28087;DHT22;15392;48.912;8.380;2023-01-01T11:17:23;23.50;44.40
28087;DHT22;15392;48.912;8.380;2023-01-01T11:19:50;23.50;44.20
28087;DHT22;15392;48.912;8.380;2023-01-01T11:22:36;23.40;40.70
28087;DHT22;15392;48.912;8.380;2023-01-01T11:30:41;23.50;42.40
28087;DHT22;15392;48.912;8.380;2023-01-01T11:33:12;23.40;40.30
28087;DHT22;15392;48.912;8.380;2023-01-01T11:35:47;23.40;42.50
28087;DHT22;15392;48.912;8.380;2023-01-01T11:38:18;23.40;44.70
28087;DHT22;15392;48.912;8.380;2023-01-01T11:40:45;23.50;43.50
28087;DHT22;15392;48.912;8.380;2023-01-01T11:43:19;23.40;44.00
28087;DHT22;15392;48.912;8.380;2023-01-01T11:45:47;23.50;45.30
28087;DHT22;15392;48.912;8.380;2023-01-01T11:48:22;23.50;44.40
28087;DHT22;15392;48.912;8.380;2023-01-01T11:50:52;23.50;44.70
28087;DHT22;15392;48.912;8.380;2023-01-01T11:55:51;23.50;43.70
28087;DHT22;15392;48.912;8.380;2023-01-01T12:00:56;23.40;41.40
28087;DHT22;15392;48.912;8.380;2023-01-01T12:03:32;23.40;40.30
28087;DHT22;15392;48.912;8.380;2023-01-01T12:06:33;23.30;42.00
